Time;durP1;ratioP1;P1;durP2;ratioP2;P2;SDS_P1;SDS_P2;PMS_P1;PMS_P2;Temp;Humidity;BMP_temperature;BMP_pressure;BME280_temperature;BME280_humidity;BME280_pressure;Samples;Min_cycle;Max_cycle;Signal;HPM_P1;HPM_P2
2023/03/04 00:01:38;;;;;;;7.55;0.80;;;5.80;99.90;;;;;;5015247;28;20088;-72
2023/03/04 00:04:03;;;;;;;5.45;1.00;;;6.10;99.90;;;;;;5009492;28;20153;-72
2023/03/04 00:06:29;;;;;;;12.30;1.38;;;5.90;99.90;;;;;;5011033;28;20045;-72
2023/03/04 00:08:55;;;;;;;13.27;1.40;;;5.80;99.90;;;;;;5009532;28;20033;-72
2023/03/04 00:11:20;;;;;;;7.60;1.00;;;5.80;99.90;;;;;;5011231;28;20101;-72
2023/03/04 00:13:46;;;;;;;7.53;1.27;;;6.00;99.90;;;;;;5009833;28;20065;-72
2023/03/04 00:16:12;;;;;;;2.83;0.90;;;5.80;99.90;;;;;;5011212;28;20057;-72
2023/03/04 00:18:38;;;;;;;8.18;1.17;;;6.10;99.90;;;;;;5010627;28;20041;-72
2023/03/04 00:21:03;;;;;;;7.63;1.30;;;6.00;99.90;;;;;;5011154;28;20042;-71
2023/03/04 00:23:29;;;;;;;7.75;0.90;;;5.80;99.90;;;;;;5009797;28;20050;-72
2023/03/04 00:25:55;;;;;;;7.60;0.80;;;5.90;99.90;;;;;;5009624;28;20063;-72
2023/03/04 00:28:20;;;;;;;9.63;1.20;;;5.90;99.90;;;;;;5011666;28;20513;-71
2023/03/04 00:30:46;;;;;;;10.05;0.80;;;5.80;99.90;;;;;;5010723;28;20045;-71
2023/03/04 00:33:12;;;;;;;6.68;0.82;;;5.80;99.90;;;;;;5009138;28;20498;-73
2023/03/04 00:35:37;;;;;;;5.38;0.88;;;5.90;99.90;;;;;;5010540;28;20509;-72
2023/03/04 00:38:03;;;;;;;6.43;0.65;;;6.00;99.90;;;;;;5010659;28;20038;-73
2023/03/04 00:40:29;;;;;;;6.53;0.90;;;5.80;99.90;;;;;;5010522;28;20045;-72
2023/03/04 00:42:55;;;;;;;6.18;0.90;;;5.80;99.90;;;;;;4993508;28;20071;-72
2023/03/04 00:45:20;;;;;;;4.15;1.00;;;5.80;99.90;;;;;;5009768;28;20095;-72
2023/03/04 00:47:46;;;;;;;6.88;0.80;;;5.80;99.90;;;;;;5010287;28;20045;-72
2023/03/04 00:50:12;;;;;;;8.27;0.90;;;5.80;99.90;;;;;;5010423;28;20038;-72
2023/03/04 00:52:37;;;;;;;4.35;0.70;;;5.90;99.90;;;;;;5009525;28;20113;-73
2023/03/04 00:55:04;;;;;;;6.10;0.70;;;6.10;99.90;;;;;;5010295;28;20068;-72
2023/03/04 00:57:29;;;;;;;9.73;0.90;;;5.80;99.90;;;;;;4992949;28;20107;-71
2023/03/04 00:59:55;;;;;;;5.88;0.90;;;6.10;99.90;;;;;;5009011;28;20041;-72
2023/03/04 01:02:21;;;;;;;9.73;1.08;;;6.20;99.90;;;;;;5010431;28;20081;-72
2023/03/04 01:04:46;;;;;;;6.38;0.90;;;5.80;99.90;;;;;;4993633;28;20041;-72
2023/03/04 01:07:12;;;;;;;7.57;0.85;;;5.90;99.90;;;;;;5013770;28;20053;-72
2023/03/04 01:09:38;;;;;;;10.80;1.35;;;6.00;99.90;;;;;;5013404;28;20824;-71
2023/03/04 01:12:04;;;;;;;7.05;0.80;;;6.00;99.90;;;;;;4996294;28;20128;-71
2023/03/04 01:14:29;;;;;;;4.10;1.08;;;5.70;99.90;;;;;;5027322;28;20057;-72
2023/03/04 01:16:55;;;;;;;8.02;0.80;;;5.80;99.90;;;;;;5015733;28;20466;-72
2023/03/04 01:19:21;;;;;;;6.13;0.80;;;6.10;99.90;;;;;;5033667;28;20041;-72
2023/03/04 01:21:46;;;;;;;9.10;1.00;;;6.00;99.90;;;;;;5033441;28;20041;-72
2023/03/04 01:24:12;;;;;;;10.48;1.08;;;5.90;99.90;;;;;;5015340;28;20121;-72
2023/03/04 01:26:38;;;;;;;4.85;1.33;;;5.80;99.90;;;;;;4999291;28;20033;-74
2023/03/04 01:29:03;;;;;;;7.15;1.10;;;5.70;99.90;;;;;;4999609;28;20041;-72
2023/03/04 01:31:29;;;;;;;8.77;1.05;;;5.70;99.90;;;;;;5033149;28;20034;-72
2023/03/04 01:33:55;;;;;;;5.55;0.90;;;6.10;99.90;;;;;;5032503;28;20098;-72
2023/03/04 01:36:20;;;;;;;9.48;1.00;;;6.00;99.90;;;;;;5015820;28;20053;-72
2023/03/04 01:38:46;;;;;;;6.57;0.95;;;5.90;99.90;;;;;;5032714;28;20045;-72
2023/03/04 01:41:13;;;;;;;6.07;0.90;;;5.70;99.90;;;;;;5032894;28;20052;-71
2023/03/04 01:43:39;;;;;;;7.18;0.77;;;5.70;99.90;;;;;;5033545;28;20059;-72
2023/03/04 01:46:05;;;;;;;4.68;1.00;;;5.80;99.90;;;;;;5052641;28;20049;-72
2023/03/04 01:48:35;;;;;;;8.73;1.00;;;5.70;99.90;;;;;;5035082;28;20043;-73
2023/03/04 01:51:06;;;;;;;4.50;0.98;;;5.70;99.90;;;;;;5052283;28;20052;-71
2023/03/04 01:53:32;;;;;;;7.72;1.08;;;5.70;99.90;;;;;;5052779;28;20078;-72
2023/03/04 01:56:23;;;;;;;4.97;0.93;;;5.70;99.90;;;;;;5052384;28;20073;-72
2023/03/04 01:59:07;;;;;;;3.63;1.10;;;5.90;99.90;;;;;;5052154;28;20052;-72
2023/03/04 02:01:33;;;;;;;8.63;0.93;;;5.80;99.90;;;;;;5034395;28;20405;-73
2023/03/04 02:03:59;;;;;;;7.85;1.00;;;6.00;99.90;;;;;;5051776;28;20119;-73
2023/03/04 02:06:25;;;;;;;5.40;0.77;;;5.90;99.90;;;;;;5052504;28;20120;-72
2023/03/04 02:08:51;;;;;;;7.93;1.67;;;5.90;99.90;;;;;;5052534;28;20044;-73
2023/03/04 02:11:16;;;;;;;7.57;0.90;;;5.70;99.90;;;;;;5052482;28;20040;-71
2023/03/04 02:13:42;;;;;;;7.28;0.90;;;5.60;99.90;;;;;;5034594;28;20374;-72
2023/03/04 02:16:08;;;;;;;13.02;1.30;;;5.70;99.90;;;;;;5051149;28;20049;-75
2023/03/04 02:18:34;;;;;;;6.05;0.93;;;5.70;99.90;;;;;;5034809;28;20045;-71
2023/03/04 02:21:27;;;;;;;10.30;1.17;;;5.60;99.90;;;;;;5051871;28;20124;-71
2023/03/04 02:24:14;;;;;;;6.57;1.40;;;5.60;99.90;;;;;;5052498;28;20373;-73
2023/03/04 02:26:42;;;;;;;3.35;1.38;;;5.60;99.90;;;;;;5052232;28;20105;-73
2023/03/04 02:29:09;;;;;;;5.68;0.95;;;5.90;99.90;;;;;;5034226;28;20347;-72
2023/03/04 02:31:41;;;;;;;7.80;0.90;;;5.60;99.90;;;;;;5034789;28;20422;-71
2023/03/04 02:34:13;;;;;;;6.25;0.80;;;5.70;99.90;;;;;;5051693;28;20146;-72
2023/03/04 02:36:39;;;;;;;7.68;0.90;;;5.60;99.90;;;;;;5034672;28;20482;-72
2023/03/04 02:39:35;;;;;;;6.10;0.80;;;5.60;99.90;;;;;;5033942;28;20053;-72
2023/03/04 02:42:02;;;;;;;5.25;0.73;;;5.60;99.90;;;;;;5051985;28;20059;-72
2023/03/04 02:44:30;;;;;;;5.13;0.80;;;5.60;99.90;;;;;;5051594;28;20033;-72
2023/03/04 02:46:57;;;;;;;5.22;0.90;;;5.80;99.90;;;;;;5051711;28;20056;-72
2023/03/04 02:49:25;;;;;;;9.80;1.17;;;5.70;99.90;;;;;;5051475;28;20387;-72
2023/03/04 02:52:22;;;;;;;5.28;1.40;;;5.60;99.90;;;;;;5033858;28;20088;-72
2023/03/04 02:54:47;;;;;;;3.78;0.93;;;5.50;99.90;;;;;;5051280;28;20193;-72
2023/03/04 02:57:14;;;;;;;6.28;0.70;;;5.70;99.90;;;;;;5051717;28;20478;-72
2023/03/04 02:59:41;;;;;;;5.30;0.80;;;5.80;99.90;;;;;;5051182;28;20072;-72
2023/03/04 03:02:07;;;;;;;4.30;0.65;;;5.70;99.90;;;;;;5051552;28;20033;-72
2023/03/04 03:04:36;;;;;;;1.92;0.60;;;5.70;99.90;;;;;;5050929;28;20037;-72
2023/03/04 03:07:01;;;;;;;8.55;0.90;;;5.70;99.90;;;;;;5051735;28;20044;-72
2023/03/04 03:09:27;;;;;;;4.70;0.60;;;5.90;99.90;;;;;;5051167;28;20036;-72
2023/03/04 03:11:53;;;;;;;4.18;0.82;;;6.00;99.90;;;;;;5051555;28;20055;-71
2023/03/04 03:14:18;;;;;;;4.38;0.80;;;5.70;99.90;;;;;;5051320;28;20509;-73
2023/03/04 03:16:44;;;;;;;5.53;0.70;;;5.60;99.90;;;;;;5051104;28;20470;-71
2023/03/04 03:19:10;;;;;;;5.72;0.70;;;5.30;99.90;;;;;;5051347;28;20470;-71
2023/03/04 03:21:35;;;;;;;4.40;0.70;;;5.50;99.90;;;;;;5033241;28;20116;-72
2023/03/04 03:24:01;;;;;;;6.57;0.90;;;5.70;99.90;;;;;;5051181;28;20045;-72
2023/03/04 03:26:27;;;;;;;5.82;0.90;;;5.50;99.90;;;;;;5033416;28;20044;-72
2023/03/04 03:28:52;;;;;;;6.93;0.98;;;5.50;99.90;;;;;;5051115;28;20045;-72
2023/03/04 03:31:18;;;;;;;3.55;0.70;;;5.70;99.90;;;;;;5050963;28;20102;-75
2023/03/04 03:33:44;;;;;;;5.35;0.70;;;5.60;99.90;;;;;;5050704;28;20268;-72
2023/03/04 03:36:10;;;;;;;9.88;1.10;;;5.50;99.90;;;;;;5050908;28;20128;-72
2023/03/04 03:38:36;;;;;;;5.85;0.98;;;5.80;99.90;;;;;;5050940;28;20132;-71
2023/03/04 03:41:02;;;;;;;8.88;0.98;;;5.60;99.90;;;;;;5044017;28;20033;-72
2023/03/04 03:43:27;;;;;;;7.82;0.80;;;5.50;99.90;;;;;;5013390;28;20500;-72
2023/03/04 03:45:53;;;;;;;8.00;0.93;;;5.60;99.90;;;;;;5042511;28;20036;-72
2023/03/04 03:48:19;;;;;;;4.03;0.63;;;5.60;99.90;;;;;;5017549;28;20057;-72
2023/03/04 03:50:44;;;;;;;5.95;1.02;;;5.60;99.90;;;;;;5016471;28;20035;-72
2023/03/04 03:53:10;;;;;;;5.68;0.85;;;5.60;99.90;;;;;;5050786;28;20036;-72
2023/03/04 03:55:37;;;;;;;6.10;0.80;;;5.80;99.90;;;;;;5050388;28;20093;-71
2023/03/04 03:58:03;;;;;;;10.25;0.95;;;5.70;99.90;;;;;;5051162;28;20067;-72
2023/03/04 04:00:29;;;;;;;4.55;0.90;;;5.70;99.90;;;;;;5050077;28;20478;-72
2023/03/04 04:02:56;;;;;;;6.38;0.90;;;5.80;99.90;;;;;;5033064;28;20056;-72
2023/03/04 04:05:22;;;;;;;5.93;0.77;;;5.40;99.90;;;;;;5049952;28;20397;-71
2023/03/04 04:07:48;;;;;;;3.15;0.60;;;5.40;99.90;;;;;;5000358;28;20041;-73
2023/03/04 04:10:14;;;;;;;2.92;0.70;;;5.70;99.90;;;;;;5050234;28;20373;-71
2023/03/04 04:12:39;;;;;;;7.43;0.63;;;5.50;99.90;;;;;;5050763;28;20124;-71
2023/03/04 04:15:06;;;;;;;4.03;0.68;;;5.50;99.90;;;;;;5049806;28;20036;-74
2023/03/04 04:17:32;;;;;;;4.63;0.90;;;5.50;99.90;;;;;;5050439;28;20045;-72
2023/03/04 04:19:57;;;;;;;2.92;0.70;;;5.60;99.90;;;;;;5050099;28;20092;-71
2023/03/04 04:22:23;;;;;;;4.07;1.23;;;5.60;99.90;;;;;;5050451;28;20048;-72
2023/03/04 04:24:49;;;;;;;6.75;0.70;;;5.60;99.90;;;;;;5050343;28;20040;-72
2023/03/04 04:27:15;;;;;;;11.43;0.70;;;5.70;99.90;;;;;;5050311;28;20044;-73
2023/03/04 04:29:40;;;;;;;4.03;0.68;;;5.50;99.90;;;;;;5000186;28;20484;-72
2023/03/04 04:32:07;;;;;;;3.78;0.88;;;5.50;99.90;;;;;;5050045;28;20076;-72
2023/03/04 04:34:33;;;;;;;4.13;0.60;;;5.70;99.90;;;;;;5032141;28;20128;-72
2023/03/04 04:36:59;;;;;;;5.60;1.10;;;5.50;99.90;;;;;;5049984;28;20178;-72
2023/03/04 04:39:25;;;;;;;5.55;0.70;;;6.00;99.90;;;;;;5050713;28;20047;-71
2023/03/04 04:41:50;;;;;;;4.80;0.60;;;5.60;99.90;;;;;;5053572;28;20045;-71
2023/03/04 04:44:16;;;;;;;10.18;0.80;;;5.90;99.90;;;;;;5053778;28;20041;-72
2023/03/04 04:46:42;;;;;;;8.40;1.23;;;5.50;99.90;;;;;;5053392;28;20045;-72
2023/03/04 04:49:08;;;;;;;7.75;0.77;;;5.60;99.90;;;;;;5036718;28;20037;-72
2023/03/04 04:51:35;;;;;;;4.35;0.88;;;5.60;99.90;;;;;;5035653;28;20493;-71
2023/03/04 04:54:01;;;;;;;6.97;0.60;;;5.70;99.90;;;;;;5053502;28;20129;-72
2023/03/04 04:56:27;;;;;;;7.50;0.80;;;5.70;99.90;;;;;;5035639;28;20045;-72
2023/03/04 04:58:55;;;;;;;4.35;0.70;;;5.50;99.90;;;;;;5035491;28;20040;-73
2023/03/04 05:01:21;;;;;;;4.85;0.60;;;5.60;99.90;;;;;;5053507;28;20044;-72
2023/03/04 05:03:49;;;;;;;3.30;0.65;;;5.50;99.90;;;;;;5035547;28;20041;-72
2023/03/04 05:06:15;;;;;;;3.83;0.60;;;5.70;99.90;;;;;;5053132;28;20044;-72
2023/03/04 05:08:41;;;;;;;2.95;1.05;;;5.60;99.90;;;;;;5053283;28;20048;-72
2023/03/04 05:11:08;;;;;;;4.45;0.60;;;5.40;99.90;;;;;;5035464;28;20037;-71
2023/03/04 05:13:34;;;;;;;6.80;0.68;;;5.40;99.90;;;;;;5035159;28;20057;-72
2023/03/04 05:16:00;;;;;;;3.90;0.60;;;5.70;99.90;;;;;;5053110;28;20041;-71
2023/03/04 05:18:26;;;;;;;3.65;0.80;;;5.60;99.90;;;;;;5053553;28;20045;-72
2023/03/04 05:20:54;;;;;;;5.38;0.82;;;5.40;99.90;;;;;;5035586;28;20041;-72
2023/03/04 05:23:20;;;;;;;7.43;0.63;;;5.30;99.90;;;;;;5053254;28;20040;-72
2023/03/04 05:25:46;;;;;;;2.13;0.40;;;5.30;99.90;;;;;;5052708;28;20045;-72
2023/03/04 05:28:12;;;;;;;4.43;1.17;;;5.60;99.90;;;;;;5053086;28;20045;-72
2023/03/04 05:30:39;;;;;;;4.95;0.73;;;5.50;99.90;;;;;;5049235;28;20061;-72
2023/03/04 05:33:07;;;;;;;7.30;0.70;;;5.50;99.90;;;;;;5033132;28;20440;-72
2023/03/04 05:35:34;;;;;;;3.03;0.70;;;5.30;99.90;;;;;;5014829;28;20045;-72
2023/03/04 05:38:00;;;;;;;5.03;0.70;;;5.50;99.90;;;;;;5033036;28;20045;-72
2023/03/04 05:40:26;;;;;;;6.20;0.80;;;5.60;99.90;;;;;;5015787;28;20087;-73
2023/03/04 05:42:52;;;;;;;4.70;0.73;;;5.50;99.90;;;;;;5032880;28;20467;-73
2023/03/04 05:45:17;;;;;;;2.22;0.50;;;5.60;99.90;;;;;;5033460;28;20037;-74
2023/03/04 05:47:43;;;;;;;3.72;0.75;;;5.40;99.90;;;;;;5015607;28;20371;-73
2023/03/04 05:50:09;;;;;;;6.63;0.82;;;5.40;99.90;;;;;;5032991;28;20070;-72
2023/03/04 05:52:35;;;;;;;4.65;0.85;;;5.40;99.90;;;;;;5032720;28;20126;-71
2023/03/04 05:55:01;;;;;;;5.13;0.60;;;5.40;99.90;;;;;;5032873;28;20134;-72
2023/03/04 05:57:26;;;;;;;3.75;0.65;;;5.60;99.90;;;;;;5032462;28;20045;-71
2023/03/04 05:59:52;;;;;;;4.65;0.50;;;5.40;99.90;;;;;;5015600;28;20053;-73
2023/03/04 06:02:18;;;;;;;4.90;0.60;;;5.50;99.90;;;;;;5015190;28;20045;-73
2023/03/04 06:04:43;;;;;;;5.63;0.50;;;5.70;99.90;;;;;;5032057;28;20037;-72
2023/03/04 06:07:09;;;;;;;4.13;0.73;;;5.40;99.90;;;;;;5032463;28;20042;-72
2023/03/04 06:09:35;;;;;;;5.97;0.60;;;5.80;99.90;;;;;;5015264;28;20052;-73
2023/03/04 06:12:01;;;;;;;2.88;0.52;;;5.60;99.90;;;;;;4998628;28;20596;-72
2023/03/04 06:14:26;;;;;;;6.18;0.85;;;5.70;99.90;;;;;;5032247;28;20170;-72
2023/03/04 06:16:52;;;;;;;4.85;0.95;;;5.70;99.90;;;;;;5014764;28;20056;-72
2023/03/04 06:19:18;;;;;;;4.65;0.70;;;5.70;99.90;;;;;;5014745;28;20136;-73
2023/03/04 06:21:45;;;;;;;2.97;0.70;;;5.40;99.90;;;;;;4998276;28;20041;-74
2023/03/04 06:24:10;;;;;;;8.57;0.75;;;5.30;99.90;;;;;;5014932;28;20081;-73
2023/03/04 06:26:36;;;;;;;4.47;0.60;;;5.90;99.90;;;;;;5032277;28;20072;-74
2023/03/04 06:29:03;;;;;;;2.88;0.80;;;5.30;99.90;;;;;;5032324;28;20048;-73
2023/03/04 06:31:28;;;;;;;2.65;0.60;;;5.50;99.90;;;;;;5032348;28;20077;-73
2023/03/04 06:33:54;;;;;;;7.47;0.90;;;5.40;99.90;;;;;;5031671;28;20038;-73
2023/03/04 06:36:20;;;;;;;7.30;0.68;;;5.70;99.90;;;;;;5032574;28;20053;-74
2023/03/04 06:38:45;;;;;;;5.80;0.70;;;5.50;99.90;;;;;;5032313;28;20045;-73
2023/03/04 06:41:12;;;;;;;2.25;0.50;;;5.40;99.90;;;;;;4998134;28;20047;-74
2023/03/04 06:43:38;;;;;;;5.30;0.70;;;5.70;99.90;;;;;;5032180;28;20049;-74
2023/03/04 06:46:06;;;;;;;5.75;0.68;;;5.60;99.90;;;;;;5014902;28;20037;-74
2023/03/04 06:48:31;;;;;;;5.88;0.52;;;5.30;99.90;;;;;;5014522;28;20470;-73
2023/03/04 06:50:57;;;;;;;3.15;0.50;;;5.50;99.90;;;;;;5016388;28;20090;-73
2023/03/04 06:53:23;;;;;;;6.60;0.85;;;5.70;99.90;;;;;;5051870;28;20094;-74
2023/03/04 06:55:49;;;;;;;3.97;0.55;;;5.50;99.90;;;;;;5033504;28;20101;-74
2023/03/04 06:58:16;;;;;;;3.42;0.70;;;5.70;99.90;;;;;;5051735;28;20048;-74
2023/03/04 07:00:43;;;;;;;4.20;0.80;;;5.70;99.90;;;;;;5051645;28;20049;-73
2023/03/04 07:03:11;;;;;;;5.95;0.73;;;5.50;99.90;;;;;;5050902;28;20049;-74
2023/03/04 07:05:37;;;;;;;5.82;0.70;;;5.60;99.90;;;;;;5033495;28;20474;-74
2023/03/04 07:08:03;;;;;;;6.18;0.80;;;5.70;99.90;;;;;;5033896;28;20045;-74
2023/03/04 07:10:28;;;;;;;5.30;0.60;;;6.10;99.90;;;;;;5051546;28;20368;-74
2023/03/04 07:12:54;;;;;;;7.93;0.85;;;5.60;99.90;;;;;;5051369;28;20063;-74
2023/03/04 07:15:20;;;;;;;6.55;1.05;;;5.60;99.90;;;;;;5033680;28;20053;-74
2023/03/04 07:17:45;;;;;;;6.22;0.80;;;5.70;99.90;;;;;;5033403;28;20075;-75
2023/03/04 07:20:11;;;;;;;6.38;0.70;;;5.70;99.90;;;;;;5033492;28;20366;-73
2023/03/04 07:22:37;;;;;;;10.02;1.08;;;5.60;99.90;;;;;;5050963;28;20124;-74
2023/03/04 07:25:04;;;;;;;9.63;1.48;;;6.00;99.90;;;;;;5051177;28;20120;-74
2023/03/04 07:27:29;;;;;;;7.85;0.93;;;5.60;99.90;;;;;;5051784;28;20052;-74
2023/03/04 07:29:55;;;;;;;7.05;1.25;;;5.70;99.90;;;;;;5017390;28;20489;-74
2023/03/04 07:32:21;;;;;;;8.60;1.35;;;5.70;99.90;;;;;;5050848;28;20041;-74
2023/03/04 07:34:46;;;;;;;9.75;1.00;;;5.60;99.90;;;;;;5051104;28;20041;-74
2023/03/04 07:37:12;;;;;;;7.68;0.82;;;5.70;99.90;;;;;;5033176;28;20390;-74
2023/03/04 07:39:38;;;;;;;8.50;1.15;;;5.70;99.90;;;;;;5032944;28;20041;-75
2023/03/04 07:42:03;;;;;;;9.02;1.40;;;5.70;99.90;;;;;;5033359;28;20037;-72
2023/03/04 07:44:29;;;;;;;11.10;1.52;;;5.80;99.90;;;;;;5033558;28;20393;-72
2023/03/04 07:46:55;;;;;;;10.10;1.30;;;5.80;99.90;;;;;;5050644;28;20044;-73
2023/03/04 07:49:21;;;;;;;9.80;1.08;;;5.90;99.90;;;;;;5050883;28;20094;-74
2023/03/04 07:51:46;;;;;;;10.40;1.23;;;5.80;99.90;;;;;;5050786;28;20132;-74
2023/03/04 07:54:12;;;;;;;7.93;1.27;;;5.90;99.90;;;;;;5032725;28;20045;-76
2023/03/04 07:56:38;;;;;;;6.65;1.08;;;6.00;99.90;;;;;;5050599;28;20390;-73
2023/03/04 07:59:03;;;;;;;8.95;1.17;;;6.00;99.90;;;;;;5050897;28;20044;-73
2023/03/04 08:01:34;;;;;;;7.25;1.27;;;6.10;99.90;;;;;;5050480;28;20127;-73
2023/03/04 08:04:01;;;;;;;8.95;1.20;;;6.00;99.90;;;;;;5050576;28;20045;-73
2023/03/04 08:06:27;;;;;;;9.73;1.25;;;6.40;99.90;;;;;;5050261;28;20080;-74
2023/03/04 08:09:02;;;;;;;12.20;1.80;;;6.00;99.90;;;;;;5032988;28;20045;-73
2023/03/04 08:11:29;;;;;;;15.27;1.58;;;6.00;99.90;;;;;;5050893;28;20043;-73
2023/03/04 08:13:56;;;;;;;10.02;1.60;;;6.00;99.90;;;;;;5031621;28;20049;-73
2023/03/04 08:16:23;;;;;;;10.18;1.42;;;6.20;99.90;;;;;;5032640;28;20076;-73
2023/03/04 08:18:51;;;;;;;8.82;1.00;;;6.10;99.90;;;;;;5033032;28;20041;-72
2023/03/04 08:21:19;;;;;;;7.90;1.00;;;6.10;99.90;;;;;;5032389;28;20120;-73
2023/03/04 08:23:45;;;;;;;7.22;0.90;;;6.10;99.90;;;;;;5030711;28;20045;-72
2023/03/04 08:26:33;;;;;;;8.02;1.10;;;6.20;99.90;;;;;;5013581;28;20501;-72
2023/03/04 08:29:01;;;;;;;7.25;1.88;;;6.10;99.90;;;;;;5029588;28;20042;-72
2023/03/04 08:31:27;;;;;;;7.88;1.20;;;6.40;99.90;;;;;;5012843;28;20367;-72
2023/03/04 08:33:53;;;;;;;7.28;0.98;;;6.10;99.90;;;;;;5029903;28;20045;-74
2023/03/04 08:36:19;;;;;;;5.40;0.88;;;6.20;99.90;;;;;;5030546;28;20633;-72
2023/03/04 08:38:45;;;;;;;11.45;1.52;;;6.60;99.90;;;;;;5030430;28;20045;-71
2023/03/04 08:41:11;;;;;;;8.95;1.50;;;6.20;99.90;;;;;;5030228;28;20039;-74
2023/03/04 08:43:37;;;;;;;7.70;1.45;;;6.30;99.90;;;;;;5030432;28;20142;-74
2023/03/04 08:46:04;;;;;;;5.78;1.67;;;6.30;99.90;;;;;;5030292;28;20120;-73
2023/03/04 08:48:30;;;;;;;7.80;1.02;;;6.20;99.90;;;;;;5030094;28;20046;-75
2023/03/04 08:50:56;;;;;;;9.52;1.20;;;6.30;99.90;;;;;;5030007;28;20038;-74
2023/03/04 08:53:21;;;;;;;10.18;1.00;;;6.30;99.90;;;;;;5031478;28;20412;-73
2023/03/04 08:55:49;;;;;;;9.13;1.58;;;6.50;99.90;;;;;;5012820;28;20046;-74
2023/03/04 08:58:15;;;;;;;13.00;1.27;;;6.20;99.90;;;;;;5042743;28;20397;-76
2023/03/04 09:00:50;;;;;;;10.52;1.90;;;6.20;99.90;;;;;;5050173;28;20045;-75
2023/03/04 09:03:18;;;;;;;7.32;1.27;;;6.20;99.90;;;;;;5018356;28;20080;-73
2023/03/04 09:05:46;;;;;;;17.20;1.60;;;6.30;99.90;;;;;;4996131;28;20073;-75
2023/03/04 09:08:12;;;;;;;13.52;1.33;;;6.70;99.90;;;;;;5030426;28;20116;-73
2023/03/04 09:10:38;;;;;;;14.32;2.30;;;6.30;99.90;;;;;;5034679;28;20065;-75
2023/03/04 09:13:05;;;;;;;10.95;1.70;;;6.30;99.90;;;;;;5030135;28;20363;-72
2023/03/04 09:15:34;;;;;;;13.85;1.70;;;6.20;99.90;;;;;;5018373;28;20432;-73
2023/03/04 09:18:02;;;;;;;9.38;1.30;;;6.20;99.90;;;;;;5016455;28;20045;-73
2023/03/04 09:20:28;;;;;;;9.45;1.17;;;6.10;99.90;;;;;;5049531;28;20041;-73
2023/03/04 09:22:54;;;;;;;9.10;1.50;;;6.30;99.90;;;;;;5049970;28;20374;-73
2023/03/04 09:25:20;;;;;;;11.63;2.13;;;6.20;99.90;;;;;;5050082;28;20041;-74
2023/03/04 09:27:46;;;;;;;9.90;1.95;;;6.30;99.90;;;;;;5035754;28;20047;-74
2023/03/04 09:30:12;;;;;;;10.68;1.73;;;6.20;99.90;;;;;;5035453;28;20048;-73
2023/03/04 09:32:38;;;;;;;15.32;1.35;;;6.20;99.90;;;;;;5052997;28;20542;-72
2023/03/04 09:35:04;;;;;;;6.65;0.70;;;6.30;99.90;;;;;;5034564;28;20037;-71
2023/03/04 09:37:30;;;;;;;4.82;0.50;;;6.30;99.90;;;;;;5053311;28;20401;-78
2023/03/04 09:39:56;;;;;;;6.10;0.60;;;6.20;99.90;;;;;;5035315;28;20044;-74
2023/03/04 09:42:45;;;;;;;5.30;0.50;;;6.20;99.90;;;;;;5052898;28;20041;-75
2023/03/04 09:45:17;;;;;;;1.08;0.30;;;6.10;99.90;;;;;;5035272;28;20045;-75
2023/03/04 09:47:43;;;;;;;1.92;0.40;;;5.90;99.90;;;;;;5052870;28;20544;-80
2023/03/04 09:50:11;;;;;;;7.05;0.52;;;6.30;99.90;;;;;;5034961;28;20084;-77
2023/03/04 09:52:43;;;;;;;3.13;0.60;;;6.00;99.90;;;;;;5053013;28;20081;-76
2023/03/04 09:55:24;;;;;;;5.40;0.57;;;6.10;99.90;;;;;;5034814;28;20127;-76
2023/03/04 09:57:59;;;;;;;5.88;0.60;;;6.20;99.90;;;;;;5035442;28;20443;-75
2023/03/04 10:00:36;;;;;;;6.88;0.90;;;6.30;99.90;;;;;;5052444;28;20037;-74
2023/03/04 10:03:01;;;;;;;6.90;0.82;;;6.30;99.90;;;;;;5052913;28;20080;-80
2023/03/04 10:05:29;;;;;;;7.63;0.60;;;6.40;99.90;;;;;;5052035;28;20080;-73
2023/03/04 10:07:59;;;;;;;6.97;0.75;;;6.40;99.90;;;;;;5052632;28;20086;-71
2023/03/04 10:10:30;;;;;;;5.65;0.82;;;6.40;99.90;;;;;;5051251;28;20419;-75
2023/03/04 10:12:58;;;;;;;7.10;1.23;;;6.40;99.90;;;;;;5034795;28;20041;-74
2023/03/04 10:15:45;;;;;;;8.88;1.40;;;6.40;99.90;;;;;;5052015;28;20061;-79
2023/03/04 10:18:29;;;;;;;5.57;1.38;;;6.40;99.90;;;;;;5028397;28;20041;-72
2023/03/04 10:21:27;;;;;;;7.65;1.00;;;6.40;99.90;;;;;;5039655;28;20032;-72
2023/03/04 10:23:53;;;;;;;9.77;1.10;;;6.50;99.90;;;;;;5024158;28;20049;-73
2023/03/04 10:26:20;;;;;;;12.48;1.30;;;6.30;99.90;;;;;;5041075;28;20049;-73
2023/03/04 10:28:47;;;;;;;5.78;0.90;;;6.20;99.90;;;;;;5094123;28;20354;-75
2023/03/04 10:31:35;;;;;;;8.60;1.58;;;6.30;99.90;;;;;;5041016;28;20033;-72
2023/03/04 10:34:04;;;;;;;9.60;1.05;;;6.20;99.90;;;;;;5042570;28;20374;-80
2023/03/04 10:36:29;;;;;;;10.38;0.93;;;6.20;99.90;;;;;;5039991;28;20044;-73
2023/03/04 10:39:07;;;;;;;7.57;1.45;;;6.30;99.90;;;;;;5024058;28;20045;-75
2023/03/04 10:41:33;;;;;;;7.90;1.02;;;6.60;99.90;;;;;;5025162;28;20492;-73
2023/03/04 10:44:10;;;;;;;8.57;1.38;;;6.40;99.90;;;;;;5042812;28;20053;-74
2023/03/04 10:46:41;;;;;;;6.05;0.95;;;6.40;99.90;;;;;;5022495;28;20029;-77
2023/03/04 10:49:11;;;;;;;11.00;0.93;;;6.40;99.90;;;;;;5023401;28;20499;-74
2023/03/04 10:51:45;;;;;;;7.60;0.77;;;6.40;99.90;;;;;;5025504;28;20041;-75
2023/03/04 10:54:25;;;;;;;8.77;1.10;;;6.40;99.90;;;;;;5041394;28;20499;-77
2023/03/04 10:56:59;;;;;;;9.48;1.40;;;6.30;99.90;;;;;;5024105;28;20033;-79
2023/03/04 10:59:38;;;;;;;8.75;1.00;;;6.40;99.90;;;;;;5040630;28;20041;-76
2023/03/04 11:02:16;;;;;;;7.82;1.55;;;6.20;99.90;;;;;;5039327;28;20041;-75
2023/03/04 11:04:47;;;;;;;8.68;1.20;;;6.50;99.90;;;;;;5052826;27;20041;-74
2023/03/04 11:07:14;;;;;;;5.13;0.90;;;6.20;99.90;;;;;;5039470;28;20029;-74
2023/03/04 11:09:43;;;;;;;6.28;0.90;;;6.30;99.90;;;;;;5042339;28;20033;-77
2023/03/04 11:12:15;;;;;;;8.70;0.98;;;6.40;99.90;;;;;;5023133;28;20033;-74
2023/03/04 11:14:47;;;;;;;5.80;0.93;;;6.40;99.90;;;;;;5040040;28;20045;-75
2023/03/04 11:17:20;;;;;;;3.97;1.23;;;6.30;99.90;;;;;;5038233;28;20036;-74
2023/03/04 11:19:51;;;;;;;6.35;0.93;;;6.30;99.90;;;;;;5040402;28;20030;-74
2023/03/04 11:22:20;;;;;;;6.55;1.00;;;6.10;99.90;;;;;;5023350;28;20040;-76
2023/03/04 11:24:58;;;;;;;8.05;1.45;;;6.00;99.90;;;;;;5034063;28;20042;-73
2023/03/04 11:27:28;;;;;;;10.00;1.70;;;6.10;99.90;;;;;;5013303;28;20045;-73
2023/03/04 11:30:02;;;;;;;10.07;1.40;;;6.40;99.90;;;;;;5059322;28;20112;-76
2023/03/04 11:32:33;;;;;;;7.95;1.45;;;6.60;99.90;;;;;;5069825;28;20040;-74
2023/03/04 11:35:07;;;;;;;6.93;1.00;;;6.50;99.90;;;;;;5052086;28;20039;-73
2023/03/04 11:37:35;;;;;;;10.70;1.10;;;6.70;99.90;;;;;;5046849;28;20088;-76
2023/03/04 11:40:13;;;;;;;4.70;0.70;;;6.50;99.90;;;;;;5075489;28;20369;-76
2023/03/04 11:42:48;;;;;;;4.97;0.90;;;6.40;99.90;;;;;;5050986;28;20048;-74
2023/03/04 11:45:18;;;;;;;7.32;1.05;;;6.30;99.90;;;;;;5033241;28;20041;-73
2023/03/04 11:47:49;;;;;;;7.88;0.80;;;6.40;99.90;;;;;;5013346;28;20073;-73
2023/03/04 11:51:00;;;;;;;6.00;0.80;;;6.40;99.90;;;;;;5031084;28;20128;-73
2023/03/04 11:54:01;;;;;;;6.57;0.90;;;6.30;99.90;;;;;;5030365;28;20065;-73
2023/03/04 11:56:48;;;;;;;5.90;0.70;;;6.30;99.90;;;;;;5000210;28;20060;-71
2023/03/04 11:59:37;;;;;;;5.80;0.80;;;6.10;99.90;;;;;;5030847;28;20128;-71
2023/03/04 12:02:28;;;;;;;7.50;0.93;;;6.00;99.90;;;;;;5030867;28;20033;-71
2023/03/04 12:05:29;;;;;;;8.25;1.00;;;6.00;99.90;;;;;;5032522;28;20044;-72
2023/03/04 12:08:34;;;;;;;6.72;0.73;;;6.20;99.90;;;;;;5014903;28;20045;-72
2023/03/04 12:11:03;;;;;;;;;;;6.20;99.90;;;;;;5013288;28;20124;-72
2023/03/04 12:13:38;;;;;;;8.73;1.25;;;6.30;99.90;;;;;;4997934;28;19925;-73
2023/03/04 12:16:39;;;;;;;7.80;1.17;;;6.30;99.90;;;;;;5040572;28;20045;-72
2023/03/04 12:19:28;;;;;;;5.05;0.70;;;6.40;99.90;;;;;;5021278;28;20112;-73
2023/03/04 12:22:05;;;;;;;10.48;1.50;;;6.50;99.90;;;;;;5047307;28;20080;-76
2023/03/04 12:24:49;;;;;;;7.65;1.10;;;6.50;99.90;;;;;;5035898;28;20045;-72
2023/03/04 12:27:24;;;;;;;10.55;1.65;;;6.60;99.90;;;;;;5040857;28;20040;-72
2023/03/04 12:29:56;;;;;;;8.60;1.17;;;6.60;99.90;;;;;;5023099;28;20152;-73
2023/03/04 12:32:48;;;;;;;7.25;1.10;;;7.10;99.90;;;;;;5028310;28;20077;-72
2023/03/04 12:35:36;;;;;;;5.20;0.57;;;6.60;99.90;;;;;;5038293;28;20028;-75
2023/03/04 12:38:01;;;;;;;5.97;0.88;;;6.50;99.90;;;;;;5041002;28;20456;-74
2023/03/04 12:40:27;;;;;;;6.18;0.80;;;6.50;99.90;;;;;;5007174;28;20033;-73
2023/03/04 12:42:52;;;;;;;6.85;0.90;;;6.30;99.90;;;;;;5039650;28;20073;-72
2023/03/04 12:45:38;;;;;;;6.03;0.80;;;6.40;99.90;;;;;;5026281;28;20053;-72
2023/03/04 12:48:26;;;;;;;6.35;1.15;;;6.20;99.90;;;;;;5029774;28;20124;-71
2023/03/04 12:51:11;;;;;;;4.53;0.60;;;6.10;99.90;;;;;;5030662;28;20042;-75
2023/03/04 12:54:12;;;;;;;8.88;1.17;;;6.40;99.90;;;;;;5030595;28;20124;-73
2023/03/04 12:57:05;;;;;;;5.05;0.80;;;6.30;99.90;;;;;;5057210;28;20044;-73
2023/03/04 12:59:39;;;;;;;5.95;1.52;;;6.60;99.90;;;;;;5029004;28;20057;-72
2023/03/04 13:03:03;;;;;;;7.85;1.00;;;6.60;99.90;;;;;;5033287;28;20090;-73
2023/03/04 13:05:56;;;;;;;8.65;0.90;;;6.60;99.90;;;;;;5044381;28;20124;-72
2023/03/04 13:08:38;;;;;;;6.03;1.63;;;6.60;99.90;;;;;;5034845;28;20060;-72